»·PEaware :: SAS255 KBUR-KLAS

SAS255 :: KBUR-KLAS

FLIGHT INFORMATION

Flight Status: Arrived
Operator:
SAS
More flights by this operator :: More flights under this callsign
Pilot: Stefan M. (10860)
Aircraft: CANADAIR CL-600 CRJ-200
(CRJ2)
More flights by this aircraft type
Origin: KBUR Bob Hope-Burbank
United States
Destination: KLAS McCarran Intl
United States
More flights between these airports :: More routes between these airports
Route: VNY2 DAG KEPEC3
File this flight plan on PilotEdge
Remarks: This is for the I-05
Altitude:
(Current/Filed)
25,000ft
Speed:
(Current/Filed)
320kts
Departed: 25-Apr-16 03:18 PM
Arrived: 25-Apr-16 04:08 PM
Distance/Time
Traveled:
194nm/0:50
Distance/Time
To Go:
Arrived

Flight Plot

Page will automatically refresh every two minutes.


Map Options




Map Legend


Flown Route
Filed Route
Departure Airport
Arrival Airport
Navaid (VOR, NDB)
Fix

Horizontal Profiles

Position Reports

Time Latitude Longitude Heading Altitude Ground
Speed
25-Apr-16 14:09 34.210736 -118.357939 257 782ft 0kts
25-Apr-16 14:10 34.210736 -118.357939 257 782ft 0kts
25-Apr-16 14:11 34.210736 -118.357939 257 782ft 0kts
25-Apr-16 14:12 34.210736 -118.357939 257 782ft 0kts
25-Apr-16 14:13 34.210736 -118.357939 257 782ft 0kts
25-Apr-16 14:14 34.210736 -118.357939 257 782ft 0kts
25-Apr-16 14:15 34.210736 -118.357939 257 782ft 0kts
25-Apr-16 14:16 34.210736 -118.357939 257 782ft 0kts
25-Apr-16 14:17 34.210736 -118.357939 257 782ft 0kts
25-Apr-16 14:18 34.210736 -118.357939 257 782ft 0kts
25-Apr-16 14:19 34.210736 -118.357939 257 782ft 0kts
25-Apr-16 14:20 34.210736 -118.357939 257 782ft 0kts
25-Apr-16 14:21 34.210736 -118.357939 257 782ft 0kts
25-Apr-16 14:22 34.210736 -118.357939 257 782ft 0kts
25-Apr-16 14:23 34.210736 -118.357939 257 782ft 0kts
25-Apr-16 14:24 34.210736 -118.357939 257 782ft 0kts
25-Apr-16 14:25 34.210736 -118.357939 257 782ft 0kts
25-Apr-16 14:26 34.210736 -118.357939 257 782ft 0kts
25-Apr-16 14:27 34.210736 -118.357939 257 782ft 0kts
25-Apr-16 14:28 34.210736 -118.357939 257 782ft 0kts
25-Apr-16 14:29 34.210736 -118.357939 257 782ft 0kts
25-Apr-16 14:30 34.210736 -118.357939 257 782ft 0kts
25-Apr-16 14:31 34.210736 -118.357939 257 782ft 0kts
25-Apr-16 14:32 34.210736 -118.357939 257 782ft 0kts
25-Apr-16 14:33 34.210736 -118.357939 257 782ft 0kts
25-Apr-16 14:34 34.210736 -118.357939 257 782ft 0kts
25-Apr-16 14:37 34.200198 -118.358732 263 782ft 0kts
25-Apr-16 14:38 34.200198 -118.358732 263 782ft 0kts
25-Apr-16 14:39 34.200198 -118.358732 263 782ft 0kts
25-Apr-16 14:40 34.200198 -118.358732 263 782ft 0kts
25-Apr-16 14:41 34.200198 -118.358732 263 782ft 0kts
25-Apr-16 14:42 34.200198 -118.358732 263 782ft 0kts
25-Apr-16 14:43 34.200198 -118.358732 263 782ft 0kts
25-Apr-16 14:44 34.200198 -118.358732 263 782ft 0kts
25-Apr-16 14:45 34.200198 -118.358732 263 782ft 0kts
25-Apr-16 14:46 34.200198 -118.358732 263 782ft 0kts
25-Apr-16 14:47 34.200198 -118.358732 263 782ft 0kts
25-Apr-16 14:48 34.200198 -118.358732 263 782ft 0kts
25-Apr-16 14:49 34.200198 -118.358732 263 782ft 0kts
25-Apr-16 14:50 34.200198 -118.358732 263 782ft 0kts
25-Apr-16 14:51 34.200198 -118.358732 263 782ft 0kts
25-Apr-16 14:52 34.200198 -118.358732 263 782ft 0kts
25-Apr-16 14:53 34.200198 -118.358732 263 782ft 0kts
25-Apr-16 14:54 34.200198 -118.358732 263 782ft 0kts
25-Apr-16 14:55 34.200198 -118.358732 263 782ft 0kts
25-Apr-16 14:56 34.200198 -118.358732 263 782ft 0kts
25-Apr-16 14:57 34.200198 -118.358732 263 782ft 0kts
25-Apr-16 14:58 34.200198 -118.358732 263 782ft 0kts
25-Apr-16 14:59 34.200116 -118.358798 173 782ft 1kts
25-Apr-16 15:00 34.200060 -118.358690 86 782ft 0kts
25-Apr-16 15:01 34.200060 -118.358690 86 782ft 0kts
25-Apr-16 15:02 34.200060 -118.358690 86 782ft 0kts
25-Apr-16 15:03 34.200091 -118.358462 71 782ft 3kts
25-Apr-16 15:04 34.202576 -118.358936 347 782ft 17kts
25-Apr-16 15:05 34.207469 -118.360278 346 782ft 17kts
25-Apr-16 15:06 34.211499 -118.361283 13 782ft 6kts
25-Apr-16 15:07 34.211783 -118.360282 156 782ft 5kts
25-Apr-16 15:08 34.211431 -118.360180 167 782ft 23kts
25-Apr-16 15:09 34.178545 -118.354700 198 1389ft 181kts
25-Apr-16 15:10 34.139472 -118.408607 232 2325ft 250kts
25-Apr-16 15:11 34.113333 -118.481724 274 3455ft 219kts
25-Apr-16 15:12 34.161450 -118.510924 343 4580ft 197kts
25-Apr-16 15:13 34.218003 -118.530787 327 6667ft 229kts
25-Apr-16 15:14 34.267507 -118.573516 318 9134ft 216kts
25-Apr-16 15:15 34.314164 -118.591511 43 11513ft 208kts
25-Apr-16 15:16 34.347985 -118.532645 52 12982ft 237kts
25-Apr-16 15:17 34.389246 -118.450955 47 12983ft 326kts
25-Apr-16 15:18 34.444610 -118.362382 47 14943ft 335kts
25-Apr-16 15:19 34.501202 -118.272087 46 16927ft 336kts
25-Apr-16 15:20 34.556440 -118.183762 45 18689ft 337kts
25-Apr-16 15:21 34.612383 -118.094139 44 20403ft 335kts
25-Apr-16 15:22 34.639671 -117.984780 74 22059ft 350kts
25-Apr-16 15:23 34.652540 -117.870141 74 23556ft 344kts
25-Apr-16 15:24 34.666335 -117.756718 63 24861ft 332kts
25-Apr-16 15:25 34.694991 -117.644073 64 24923ft 372kts
25-Apr-16 15:26 34.726979 -117.518833 64 24919ft 408kts
25-Apr-16 15:27 34.760993 -117.385082 65 24919ft 439kts
25-Apr-16 15:28 34.798196 -117.238020 65 24906ft 465kts
25-Apr-16 15:29 34.836993 -117.083784 66 24874ft 487kts
25-Apr-16 15:30 34.876226 -116.926771 66 24850ft 479kts
25-Apr-16 15:31 34.914524 -116.774018 66 24841ft 472kts
25-Apr-16 15:32 34.951214 -116.625578 66 24645ft 448kts
25-Apr-16 15:33 35.004144 -116.527602 38 23853ft 409kts
25-Apr-16 15:34 35.082670 -116.428614 38 23771ft 401kts
25-Apr-16 15:35 35.156560 -116.336136 40 24009ft 349kts
25-Apr-16 15:36 35.223961 -116.251576 42 22302ft 346kts
25-Apr-16 15:37 35.289450 -116.169220 42 20296ft 332kts
25-Apr-16 15:38 35.353313 -116.088782 42 18315ft 329kts
25-Apr-16 15:39 35.415952 -116.009680 42 16528ft 319kts
25-Apr-16 15:40 35.476974 -115.932451 42 14731ft 311kts
25-Apr-16 15:41 35.534353 -115.860084 42 13111ft 302kts
25-Apr-16 15:42 35.585208 -115.795576 42 13037ft 287kts
25-Apr-16 15:43 35.637192 -115.729413 43 13052ft 298kts
25-Apr-16 15:44 35.686688 -115.666065 43 13051ft 294kts
25-Apr-16 15:45 35.737043 -115.601444 42 13051ft 283kts
25-Apr-16 15:46 35.801323 -115.574359 0 13061ft 266kts
25-Apr-16 15:47 35.871858 -115.569312 359 13053ft 275kts
25-Apr-16 15:48 35.943102 -115.565169 358 13034ft 275kts
25-Apr-16 15:49 35.987969 -115.505863 63 12478ft 282kts
25-Apr-16 15:50 36.014774 -115.426213 66 11255ft 269kts
25-Apr-16 15:51 36.028363 -115.346562 93 10973ft 258kts
25-Apr-16 15:52 36.022539 -115.258543 94 9615ft 272kts
25-Apr-16 15:53 36.016569 -115.174914 94 9004ft 248kts
25-Apr-16 15:54 36.011337 -115.097816 94 7434ft 238kts
25-Apr-16 15:55 36.015862 -115.021011 36 5081ft 232kts
25-Apr-16 15:56 36.072244 -115.004600 329 3490ft 182kts
25-Apr-16 15:57 36.074233 -115.052422 258 2755ft 156kts
25-Apr-16 15:58 36.074013 -115.103570 265 2544ft 137kts
25-Apr-16 15:59 36.073650 -115.138902 266 2146ft 38kts
25-Apr-16 16:00 36.074134 -115.144516 294 2146ft 11kts
25-Apr-16 16:01 36.074355 -115.145068 296 2146ft 0kts
25-Apr-16 16:02 36.074904 -115.146267 316 2146ft 9kts
25-Apr-16 16:03 36.076600 -115.146619 358 2146ft 19kts
25-Apr-16 16:04 36.079733 -115.147261 20 2146ft 4kts
25-Apr-16 16:05 36.079984 -115.146938 56 2146ft 0kts
25-Apr-16 16:06 36.079984 -115.146938 56 2146ft 0kts
25-Apr-16 16:07 36.079984 -115.146938 56 2146ft 0kts
25-Apr-16 16:08 36.079984 -115.146938 56 2146ft 0kts

Navigation Log

Ident Type
1. KBUR Airport
2. IPIHO Fix
3. TWINE Fix
4. LANGE Fix
5. PMD Navaid
6. DAG Navaid
7. MISEN Fix
8. CLARR Fix
9. SKEBR Fix
10. KEPEC Fix
11. IPUMY Fix
12. NIPZO Fix
13. SUNST Fix
14. KIMME Fix
15. CHIPZ Fix
16. POKRR Fix
17. PRINO Fix
18. KLAS Airport